Time;durP1;ratioP1;P1;durP2;ratioP2;P2;SDS_P1;SDS_P2;PMS_P1;PMS_P2;Temp;Humidity;BMP_temperature;BMP_pressure;BME280_temperature;BME280_humidity;BME280_pressure;Samples;Min_cycle;Max_cycle;Signal;HPM_P1;HPM_P2
2020/12/13 00:00:49;;;;;;;13.27;10.00;;;4.90;99.90;;;;;;5073456;28;20040;-77
2020/12/13 00:03:15;;;;;;;11.73;8.60;;;4.90;99.90;;;;;;5073363;28;20036;-77
2020/12/13 00:05:41;;;;;;;12.90;8.90;;;4.90;99.90;;;;;;5073373;28;20031;-78
2020/12/13 00:08:07;;;;;;;8.52;6.35;;;4.90;99.90;;;;;;5074561;28;20482;-77
2020/12/13 00:10:33;;;;;;;9.00;6.20;;;5.00;99.90;;;;;;5073256;28;20056;-77
2020/12/13 00:12:59;;;;;;;8.73;6.15;;;5.00;99.90;;;;;;5074753;28;20023;-77
2020/12/13 00:15:24;;;;;;;9.48;6.15;;;5.10;99.90;;;;;;5073222;28;20025;-77
2020/12/13 00:17:51;;;;;;;9.20;5.80;;;5.00;99.90;;;;;;5074392;28;20024;-77
2020/12/13 00:20:18;;;;;;;10.18;7.30;;;5.00;99.90;;;;;;5074661;28;20017;-77
2020/12/13 00:22:45;;;;;;;8.00;5.70;;;5.00;99.90;;;;;;5074275;28;20548;-77
2020/12/13 00:25:11;;;;;;;8.55;6.63;;;5.00;99.90;;;;;;5074060;28;20044;-77
2020/12/13 00:27:36;;;;;;;8.90;5.40;;;5.00;99.90;;;;;;5072947;28;20497;-77
2020/12/13 00:30:03;;;;;;;9.82;5.72;;;4.90;99.90;;;;;;5072838;28;20103;-77
2020/12/13 00:32:30;;;;;;;5.85;4.85;;;4.80;99.90;;;;;;5074363;28;20107;-77
2020/12/13 00:34:58;;;;;;;6.93;5.25;;;4.80;99.90;;;;;;5074074;28;20025;-77
2020/12/13 00:37:27;;;;;;;8.40;4.60;;;4.80;99.90;;;;;;5074024;28;20024;-77
2020/12/13 00:39:53;;;;;;;7.15;4.32;;;4.70;99.90;;;;;;5073994;28;20032;-77
2020/12/13 00:42:18;;;;;;;7.03;5.00;;;4.70;99.90;;;;;;5073955;28;20020;-77
2020/12/13 00:44:44;;;;;;;8.40;4.30;;;4.70;99.90;;;;;;5072547;28;20585;-77
2020/12/13 00:47:10;;;;;;;6.50;4.82;;;4.70;99.90;;;;;;5072533;28;20025;-77
2020/12/13 00:49:36;;;;;;;5.45;4.28;;;4.70;99.90;;;;;;5072543;28;20024;-77
2020/12/13 00:52:05;;;;;;;7.55;5.32;;;4.70;99.90;;;;;;5073800;28;20376;-77
2020/12/13 00:54:31;;;;;;;7.63;5.65;;;4.70;99.90;;;;;;5073752;28;20025;-77
2020/12/13 00:56:57;;;;;;;6.70;5.25;;;4.70;99.90;;;;;;5073708;28;20086;-77
2020/12/13 00:59:23;;;;;;;7.05;5.15;;;4.70;99.90;;;;;;5072461;28;20414;-77
2020/12/13 01:01:49;;;;;;;7.82;5.70;;;4.70;99.90;;;;;;5073223;28;20103;-77
2020/12/13 01:04:15;;;;;;;9.63;6.63;;;4.70;99.90;;;;;;5089037;28;20552;-77
2020/12/13 01:06:41;;;;;;;7.93;6.10;;;4.70;99.90;;;;;;5073882;28;20091;-77
2020/12/13 01:09:06;;;;;;;8.10;5.50;;;4.70;99.90;;;;;;5072318;28;20017;-77
2020/12/13 01:11:33;;;;;;;8.82;6.35;;;4.70;99.90;;;;;;5073547;28;20024;-77
2020/12/13 01:14:00;;;;;;;7.93;5.63;;;4.60;99.90;;;;;;5073547;28;20499;-77
2020/12/13 01:16:27;;;;;;;6.88;4.95;;;4.70;99.90;;;;;;5073559;28;20017;-77
2020/12/13 01:18:53;;;;;;;8.45;5.65;;;4.60;99.90;;;;;;5073503;28;20021;-77
2020/12/13 01:21:24;;;;;;;9.48;7.15;;;4.60;99.90;;;;;;5073771;28;20464;-77
2020/12/13 01:23:54;;;;;;;7.70;4.88;;;4.60;99.90;;;;;;5073386;28;20078;-77
2020/12/13 01:26:21;;;;;;;8.65;5.85;;;4.60;99.90;;;;;;5073261;28;20519;-77
2020/12/13 01:28:47;;;;;;;10.13;4.88;;;4.70;99.90;;;;;;5072146;28;20017;-77
2020/12/13 01:31:15;;;;;;;8.13;5.72;;;4.70;99.90;;;;;;5073396;28;20377;-77
2020/12/13 01:33:41;;;;;;;7.05;5.18;;;4.70;99.90;;;;;;5073308;28;20082;-77
2020/12/13 01:36:11;;;;;;;8.90;5.85;;;4.70;99.90;;;;;;5072063;28;20061;-77
2020/12/13 01:38:37;;;;;;;7.35;5.40;;;4.70;99.90;;;;;;5073872;28;20020;-77
2020/12/13 01:41:03;;;;;;;7.32;4.95;;;4.70;99.90;;;;;;5072021;28;20029;-77
2020/12/13 01:43:28;;;;;;;9.60;6.28;;;4.70;99.90;;;;;;5073441;28;20024;-78
2020/12/13 01:45:54;;;;;;;8.50;4.95;;;4.80;99.90;;;;;;5071944;28;20379;-77
2020/12/13 01:48:20;;;;;;;6.25;4.82;;;4.80;99.90;;;;;;5073460;28;20024;-77
2020/12/13 01:53:16;;;;;;;6.40;5.32;;;4.80;99.90;;;;;;5073733;28;20074;-77
2020/12/13 01:55:44;;;;;;;6.90;5.72;;;4.80;99.90;;;;;;5088768;28;20043;-77
2020/12/13 01:58:29;;;;;;;6.55;3.95;;;4.80;99.90;;;;;;5088675;28;20361;-77
2020/12/13 02:00:56;;;;;;;;;;;4.80;99.90;;;;;;5074177;28;20021;-77
2020/12/13 02:03:23;;;;;;;9.15;5.25;;;4.80;99.90;;;;;;5088552;28;20318;-77
2020/12/13 02:05:56;;;;;;;5.65;4.38;;;4.80;99.90;;;;;;5073036;28;20098;-78
2020/12/13 02:08:23;;;;;;;8.07;5.03;;;4.80;99.90;;;;;;5071817;28;20388;-77
2020/12/13 02:10:49;;;;;;;8.88;4.95;;;4.80;99.90;;;;;;5073293;28;20528;-77
2020/12/13 02:13:15;;;;;;;5.80;4.10;;;4.80;99.90;;;;;;5072125;28;20021;-78
2020/12/13 02:15:41;;;;;;;7.15;5.00;;;4.80;99.90;;;;;;5075496;28;20031;-77
2020/12/13 02:18:07;;;;;;;8.55;5.75;;;4.80;99.90;;;;;;5076971;28;20031;-76
2020/12/13 02:20:32;;;;;;;7.70;5.35;;;4.80;99.90;;;;;;5076668;28;20051;-77
2020/12/13 02:23:01;;;;;;;7.93;4.95;;;4.80;99.90;;;;;;5075267;28;20115;-78
2020/12/13 02:25:26;;;;;;;6.15;4.70;;;4.80;99.90;;;;;;5075083;28;20404;-77
2020/12/13 02:27:52;;;;;;;8.20;3.97;;;4.80;99.90;;;;;;5076448;28;20024;-77
2020/12/13 02:30:18;;;;;;;4.65;3.95;;;4.80;99.90;;;;;;5076762;28;20031;-77
2020/12/13 02:32:44;;;;;;;5.57;4.50;;;4.80;99.90;;;;;;5076401;28;20024;-77
2020/12/13 02:35:10;;;;;;;4.40;3.90;;;4.80;99.90;;;;;;5076626;28;20024;-77
2020/12/13 02:37:36;;;;;;;7.22;4.38;;;4.80;99.90;;;;;;5076344;28;20522;-77
2020/12/13 02:40:03;;;;;;;5.38;4.40;;;4.80;99.90;;;;;;5074962;28;20020;-77
2020/12/13 02:42:29;;;;;;;5.45;3.97;;;4.80;99.90;;;;;;5076788;28;20028;-77
2020/12/13 02:44:55;;;;;;;6.30;4.35;;;4.80;99.90;;;;;;5074868;28;20029;-78
2020/12/13 02:47:20;;;;;;;5.93;4.22;;;4.80;99.90;;;;;;5076355;28;20074;-77
2020/12/13 02:49:46;;;;;;;5.82;4.50;;;4.80;99.90;;;;;;5076364;28;20024;-77
2020/12/13 02:52:11;;;;;;;5.20;4.22;;;4.80;99.90;;;;;;5074778;28;20021;-77
2020/12/13 02:54:37;;;;;;;5.75;4.80;;;4.80;99.90;;;;;;5076054;28;20032;-77
2020/12/13 02:57:04;;;;;;;7.18;5.15;;;4.80;99.90;;;;;;5091548;28;20028;-77
2020/12/13 02:59:30;;;;;;;8.52;4.90;;;4.70;99.90;;;;;;5075956;28;20032;-77
2020/12/13 03:01:56;;;;;;;5.50;4.75;;;4.70;99.90;;;;;;5075900;28;20431;-77
2020/12/13 03:04:22;;;;;;;5.25;4.68;;;4.70;99.90;;;;;;5074448;28;20029;-77
2020/12/13 03:06:47;;;;;;;6.35;4.95;;;4.70;99.90;;;;;;5074595;28;20028;-77
2020/12/13 03:09:13;;;;;;;6.70;5.03;;;4.70;99.90;;;;;;5074491;28;20115;-77
2020/12/13 03:11:39;;;;;;;6.43;4.55;;;4.60;99.90;;;;;;5075968;28;20020;-77
2020/12/13 03:14:05;;;;;;;6.72;4.80;;;4.60;99.90;;;;;;5074381;28;20028;-77
2020/12/13 03:16:30;;;;;;;5.55;4.57;;;4.60;99.90;;;;;;5075614;28;20113;-77
2020/12/13 03:18:56;;;;;;;6.95;4.93;;;4.60;99.90;;;;;;5075874;28;20024;-77
2020/12/13 03:21:22;;;;;;;6.88;5.68;;;4.60;99.90;;;;;;5074237;28;20111;-77
2020/12/13 03:23:47;;;;;;;5.65;3.95;;;4.60;99.90;;;;;;5074128;28;20075;-77
2020/12/13 03:26:13;;;;;;;4.68;3.92;;;4.70;99.90;;;;;;5074641;28;20045;-77
2020/12/13 03:28:39;;;;;;;7.30;4.80;;;4.70;99.90;;;;;;5074542;28;20094;-77
2020/12/13 03:31:05;;;;;;;5.68;4.53;;;4.70;99.90;;;;;;5075392;28;20024;-77
2020/12/13 03:33:30;;;;;;;5.82;4.07;;;4.70;99.90;;;;;;5075294;28;20031;-78
2020/12/13 03:35:56;;;;;;;5.50;3.92;;;4.70;99.90;;;;;;5075301;28;20032;-77
2020/12/13 03:38:22;;;;;;;6.82;4.13;;;4.70;99.90;;;;;;5075339;28;20078;-77
2020/12/13 03:40:48;;;;;;;6.72;4.25;;;4.70;99.90;;;;;;5073984;28;20056;-77
2020/12/13 03:43:13;;;;;;;6.10;4.95;;;4.80;99.90;;;;;;5075167;28;20028;-77
2020/12/13 03:45:39;;;;;;;6.70;4.05;;;4.80;99.90;;;;;;5073750;28;20103;-78
2020/12/13 03:48:05;;;;;;;5.32;4.07;;;4.80;99.90;;;;;;5075040;28;20099;-77
2020/12/13 03:50:39;;;;;;;4.57;3.58;;;4.80;99.90;;;;;;5075013;28;20020;-77
2020/12/13 03:53:10;;;;;;;6.07;4.30;;;4.80;99.90;;;;;;5073757;28;20024;-77
2020/12/13 03:55:37;;;;;;;6.40;5.00;;;4.80;99.90;;;;;;5075251;28;20070;-78
2020/12/13 03:58:03;;;;;;;4.35;3.65;;;4.80;99.90;;;;;;5090604;28;20496;-77
2020/12/13 04:00:29;;;;;;;5.30;3.97;;;4.80;99.90;;;;;;5073469;28;20016;-77
2020/12/13 04:02:56;;;;;;;5.05;3.70;;;4.70;99.90;;;;;;5090307;28;20050;-77
2020/12/13 04:05:23;;;;;;;8.52;4.03;;;4.80;99.90;;;;;;5074929;28;20032;-77
2020/12/13 04:07:49;;;;;;;4.05;3.45;;;4.80;99.90;;;;;;5074665;28;20017;-77
2020/12/13 04:10:15;;;;;;;5.60;3.58;;;4.80;99.90;;;;;;5074613;28;20028;-77
2020/12/13 04:12:41;;;;;;;6.70;3.92;;;4.80;99.90;;;;;;5073267;28;20028;-78
2020/12/13 04:15:06;;;;;;;6.45;3.50;;;4.80;99.90;;;;;;5073261;28;20035;-77
2020/12/13 04:17:32;;;;;;;5.13;3.60;;;4.80;99.90;;;;;;5073207;28;20029;-77
2020/12/13 04:19:58;;;;;;;3.90;3.05;;;4.80;99.90;;;;;;5074397;28;20028;-78
2020/12/13 04:22:24;;;;;;;4.65;3.10;;;4.80;99.90;;;;;;5074464;28;20035;-77
2020/12/13 04:24:49;;;;;;;5.78;3.67;;;4.80;99.90;;;;;;5074023;28;20055;-77
2020/12/13 04:27:15;;;;;;;4.32;3.30;;;4.90;99.90;;;;;;5074530;28;20024;-77
2020/12/13 04:29:41;;;;;;;4.25;3.08;;;4.90;99.90;;;;;;5089876;28;20479;-78
2020/12/13 04:32:07;;;;;;;4.38;2.97;;;4.90;99.90;;;;;;5072897;28;20110;-77
2020/12/13 04:34:33;;;;;;;4.10;3.08;;;4.90;99.90;;;;;;5072824;28;20032;-77
2020/12/13 04:36:59;;;;;;;4.65;3.22;;;4.90;99.90;;;;;;5071884;28;20021;-77
2020/12/13 04:39:25;;;;;;;4.07;3.30;;;4.90;99.90;;;;;;5072731;28;20078;-77
2020/12/13 04:41:51;;;;;;;4.75;3.42;;;4.90;99.90;;;;;;5074256;28;20024;-77
2020/12/13 04:44:18;;;;;;;4.28;3.13;;;4.90;99.90;;;;;;5074120;28;20028;-77
2020/12/13 04:46:46;;;;;;;4.53;3.45;;;4.90;99.90;;;;;;5074114;28;20029;-77
2020/12/13 04:49:15;;;;;;;4.18;2.85;;;4.90;99.90;;;;;;5074168;28;20039;-77
2020/12/13 04:51:42;;;;;;;3.08;2.67;;;4.80;99.90;;;;;;5073903;28;20108;-78
2020/12/13 04:54:08;;;;;;;4.13;2.97;;;4.80;99.90;;;;;;5073811;28;20028;-78
2020/12/13 04:56:36;;;;;;;4.75;2.83;;;4.80;99.90;;;;;;5074018;28;20028;-77
2020/12/13 04:59:04;;;;;;;6.13;2.63;;;4.80;99.90;;;;;;5089318;28;20031;-77
2020/12/13 05:01:29;;;;;;;4.35;3.15;;;4.80;99.90;;;;;;5073736;28;20028;-77
2020/12/13 05:03:55;;;;;;;4.03;2.83;;;4.70;99.90;;;;;;5072641;28;20029;-77
2020/12/13 05:06:22;;;;;;;5.88;2.60;;;4.80;99.90;;;;;;5072386;28;20020;-77
2020/12/13 05:08:48;;;;;;;3.40;3.00;;;4.80;99.90;;;;;;5073626;28;20077;-77
2020/12/13 05:11:14;;;;;;;4.13;3.22;;;4.80;99.90;;;;;;5073619;28;20369;-77
2020/12/13 05:13:41;;;;;;;3.97;3.10;;;4.80;99.90;;;;;;5072312;28;20031;-78
2020/12/13 05:16:07;;;;;;;3.72;3.10;;;4.80;99.90;;;;;;5073554;28;20077;-78
2020/12/13 05:18:40;;;;;;;5.80;3.28;;;4.80;99.90;;;;;;5089093;28;20032;-77
2020/12/13 05:21:06;;;;;;;3.22;2.70;;;4.80;99.90;;;;;;5072259;28;20025;-77
2020/12/13 05:23:33;;;;;;;3.80;2.67;;;4.90;99.90;;;;;;5073373;28;20032;-77
2020/12/13 05:25:59;;;;;;;4.30;2.60;;;4.80;99.90;;;;;;5088848;28;20507;-77
2020/12/13 05:28:25;;;;;;;3.50;2.67;;;4.80;99.90;;;;;;5073468;28;20029;-77
2020/12/13 05:30:51;;;;;;;3.40;2.60;;;4.90;99.90;;;;;;5072166;28;20039;-78
2020/12/13 05:35:46;;;;;;;4.05;2.70;;;4.90;99.90;;;;;;5073738;28;20375;-77
2020/12/13 05:38:13;;;;;;;4.47;3.10;;;4.90;99.90;;;;;;5088973;28;20028;-77
2020/12/13 05:40:40;;;;;;;5.03;2.90;;;5.00;99.90;;;;;;5072073;28;20028;-77
2020/12/13 05:43:11;;;;;;;2.60;2.00;;;5.00;99.90;;;;;;5073240;28;20028;-77
2020/12/13 05:51:02;;;;;;;6.25;2.47;;;5.00;99.90;;;;;;5077674;28;20028;-77
2020/12/13 05:53:28;;;;;;;3.45;2.15;;;5.00;99.90;;;;;;5077275;28;20070;-77
2020/12/13 05:55:56;;;;;;;2.33;1.70;;;5.00;99.90;;;;;;5075981;28;20028;-77
2020/12/13 05:58:25;;;;;;;3.40;2.22;;;5.00;99.90;;;;;;5075841;28;20021;-77
2020/12/13 06:00:51;;;;;;;2.75;1.85;;;5.00;99.90;;;;;;5075826;28;20067;-77
2020/12/13 06:03:29;;;;;;;2.63;2.05;;;5.10;99.90;;;;;;5075676;28;20468;-77
2020/12/13 06:06:05;;;;;;;2.00;1.80;;;5.00;99.90;;;;;;5077047;28;20028;-77
2020/12/13 06:08:45;;;;;;;1.88;1.42;;;5.00;99.90;;;;;;5076991;28;20021;-75
2020/12/13 06:11:12;;;;;;;4.53;2.00;;;5.10;99.90;;;;;;5075658;28;20491;-77
2020/12/13 06:13:45;;;;;;;2.00;1.80;;;5.10;99.90;;;;;;5075591;28;20031;-78
2020/12/13 06:16:12;;;;;;;4.28;1.63;;;5.00;99.90;;;;;;5076817;28;20539;-78
2020/12/13 06:18:39;;;;;;;1.90;1.65;;;5.00;99.90;;;;;;5077021;28;20077;-77
2020/12/13 06:21:08;;;;;;;2.22;1.80;;;5.00;99.90;;;;;;5075395;28;20488;-78
2020/12/13 06:23:35;;;;;;;6.20;1.73;;;5.00;99.90;;;;;;5092172;28;20055;-79
2020/12/13 06:26:02;;;;;;;2.60;2.05;;;4.90;99.90;;;;;;5076390;28;20052;-78
2020/12/13 06:28:27;;;;;;;2.38;1.98;;;4.90;99.90;;;;;;5076561;28;20103;-77
2020/12/13 06:30:53;;;;;;;2.35;1.48;;;4.90;99.90;;;;;;5076455;28;20059;-77
2020/12/13 06:33:19;;;;;;;2.00;1.73;;;4.90;99.90;;;;;;5075408;28;20039;-77
2020/12/13 06:35:46;;;;;;;2.05;1.80;;;4.90;99.90;;;;;;5075180;28;20034;-78
2020/12/13 06:38:18;;;;;;;2.38;1.42;;;4.90;99.90;;;;;;5076623;28;20028;-78
2020/12/13 06:40:47;;;;;;;2.55;1.77;;;4.90;99.90;;;;;;5076853;28;20468;-78
2020/12/13 06:43:13;;;;;;;2.92;1.63;;;5.00;99.90;;;;;;5074928;28;20115;-78
2020/12/13 06:45:39;;;;;;;6.13;1.48;;;5.00;99.90;;;;;;5076267;28;20099;-78
2020/12/13 06:48:04;;;;;;;2.45;1.35;;;5.00;99.90;;;;;;5074926;28;20354;-77
2020/12/13 06:50:30;;;;;;;3.60;1.45;;;5.00;99.90;;;;;;5076254;28;20013;-78
2020/12/13 06:52:56;;;;;;;1.60;1.40;;;5.10;99.90;;;;;;5076060;28;20025;-78
2020/12/13 06:55:32;;;;;;;1.65;1.50;;;5.10;99.90;;;;;;5091711;28;20035;-77
2020/12/13 06:58:03;;;;;;;2.00;1.70;;;5.00;99.90;;;;;;5076711;28;20036;-77
2020/12/13 07:00:49;;;;;;;2.25;1.33;;;5.10;99.90;;;;;;5074892;28;20021;-77
2020/12/13 07:03:26;;;;;;;2.47;1.90;;;5.10;99.90;;;;;;5091519;28;20450;-77
2020/12/13 07:05:57;;;;;;;1.73;1.60;;;5.20;99.90;;;;;;5074709;28;20020;-77
2020/12/13 07:08:24;;;;;;;3.88;2.03;;;5.20;99.90;;;;;;5074644;28;20024;-78
2020/12/13 07:10:53;;;;;;;2.88;2.35;;;5.20;99.90;;;;;;5091458;28;20025;-78
2020/12/13 07:13:22;;;;;;;4.00;2.00;;;5.20;99.90;;;;;;5075785;28;20037;-78
2020/12/13 07:16:24;;;;;;;2.10;1.80;;;5.20;99.90;;;;;;5074408;28;20114;-77
2020/12/13 07:18:45;;;;;;;5.35;2.22;;;5.20;99.90;;;;;;5075468;28;20040;-77
2020/12/13 07:21:14;;;;;;;3.08;2.40;;;5.20;99.90;;;;;;5075898;28;20036;-78
2020/12/13 07:23:40;;;;;;;2.80;2.08;;;5.20;99.90;;;;;;5075480;28;20107;-77
2020/12/13 07:26:06;;;;;;;4.32;3.20;;;5.20;99.90;;;;;;5074084;28;20087;-77
2020/12/13 07:28:32;;;;;;;3.90;2.33;;;5.20;99.90;;;;;;5075562;28;20468;-77
2020/12/13 07:31:02;;;;;;;3.78;2.83;;;5.20;99.90;;;;;;5075651;28;20091;-78
2020/12/13 07:33:28;;;;;;;5.78;2.97;;;5.20;99.90;;;;;;5075500;28;20415;-78
2020/12/13 07:35:54;;;;;;;4.53;3.05;;;5.20;99.90;;;;;;5075652;28;20024;-78
2020/12/13 07:38:22;;;;;;;4.30;3.08;;;5.20;99.90;;;;;;5074107;28;20052;-78
2020/12/13 07:40:49;;;;;;;4.25;3.13;;;5.30;99.90;;;;;;5075587;28;20035;-77
2020/12/13 07:43:14;;;;;;;4.72;3.38;;;5.30;99.90;;;;;;5075194;28;20476;-78
2020/12/13 07:45:40;;;;;;;5.07;3.50;;;5.40;99.90;;;;;;5075140;28;20023;-77
2020/12/13 07:48:06;;;;;;;4.03;3.05;;;5.40;99.90;;;;;;5073743;28;20024;-78
2020/12/13 07:50:42;;;;;;;3.38;2.72;;;5.40;99.90;;;;;;5073761;28;20471;-78
2020/12/13 07:53:08;;;;;;;7.43;3.00;;;5.40;99.90;;;;;;5075018;28;20120;-78
2020/12/13 07:55:33;;;;;;;4.65;2.85;;;5.40;99.90;;;;;;5074924;28;20095;-78
2020/12/13 07:58:00;;;;;;;4.97;3.42;;;5.40;99.90;;;;;;5075041;28;20021;-77
2020/12/13 08:00:26;;;;;;;6.60;3.15;;;5.40;99.90;;;;;;5073532;28;20025;-77
2020/12/13 08:03:00;;;;;;;2.92;2.60;;;5.40;99.90;;;;;;5074872;28;20103;-78
2020/12/13 08:05:27;;;;;;;4.40;3.10;;;5.40;99.90;;;;;;5075052;28;20020;-77
2020/12/13 08:08:01;;;;;;;5.82;3.17;;;5.40;99.90;;;;;;5073472;28;20365;-78
2020/12/13 08:10:30;;;;;;;4.65;3.00;;;5.40;99.90;;;;;;5073423;28;20021;-78
2020/12/13 08:12:56;;;;;;;5.30;3.45;;;5.40;99.90;;;;;;5074429;28;20425;-78
2020/12/13 08:15:22;;;;;;;4.72;3.28;;;5.40;99.90;;;;;;5074581;28;20055;-78
2020/12/13 08:18:12;;;;;;;4.18;3.03;;;5.50;99.90;;;;;;5073322;28;20020;-78
2020/12/13 08:20:43;;;;;;;4.22;3.03;;;5.50;99.90;;;;;;5074063;28;20039;-78
2020/12/13 08:23:12;;;;;;;6.68;2.90;;;5.50;99.90;;;;;;5074613;28;20032;-77
2020/12/13 08:25:38;;;;;;;6.70;3.13;;;5.60;99.90;;;;;;5074141;28;20143;-78
2020/12/13 08:28:05;;;;;;;3.00;2.40;;;5.60;99.90;;;;;;5074318;28;20533;-77
2020/12/13 08:30:31;;;;;;;3.75;2.72;;;5.80;99.90;;;;;;5074284;28;20376;-77
2020/12/13 08:32:58;;;;;;;4.72;2.25;;;6.20;99.90;;;;;;5089833;28;20111;-78
2020/12/13 08:35:27;;;;;;;5.43;2.85;;;6.40;99.90;;;;;;5074204;28;20104;-78
2020/12/13 08:37:58;;;;;;;4.47;2.22;;;6.70;99.90;;;;;;5074186;28;20074;-77
2020/12/13 08:40:38;;;;;;;6.40;5.50;;;6.80;99.90;;;;;;5072808;28;20032;-78
2020/12/13 08:43:05;;;;;;;3.55;2.08;;;6.70;99.90;;;;;;5074257;28;20456;-77
2020/12/13 08:45:32;;;;;;;3.45;2.72;;;6.60;99.90;;;;;;5089506;28;20032;-77
2020/12/13 08:48:02;;;;;;;3.75;2.17;;;6.60;99.90;;;;;;5073938;28;20024;-78
2020/12/13 08:50:39;;;;;;;5.40;2.47;;;6.50;99.90;;;;;;5073932;28;20016;-78
2020/12/13 08:53:22;;;;;;;3.10;2.05;;;6.50;99.90;;;;;;5072581;28;20066;-78
2020/12/13 08:56:11;;;;;;;2.83;2.42;;;6.40;99.90;;;;;;5073814;28;20426;-77
2020/12/13 08:58:50;;;;;;;6.53;2.30;;;6.30;99.90;;;;;;5073844;28;20020;-77
2020/12/13 09:01:16;;;;;;;6.07;2.67;;;6.40;99.90;;;;;;5073754;28;20017;-77
2020/12/13 09:03:42;;;;;;;4.20;3.08;;;6.50;99.90;;;;;;5073680;28;20074;-78
2020/12/13 09:06:08;;;;;;;6.45;3.63;;;6.50;99.90;;;;;;5073713;28;20028;-78
2020/12/13 09:08:34;;;;;;;7.35;4.47;;;6.50;99.90;;;;;;5073678;28;20104;-78
2020/12/13 09:11:04;;;;;;;6.65;4.53;;;6.60;99.90;;;;;;5073633;28;20361;-78
2020/12/13 09:13:32;;;;;;;4.95;2.10;;;6.60;99.90;;;;;;5072378;28;20070;-78
2020/12/13 09:15:57;;;;;;;5.00;2.33;;;6.50;99.90;;;;;;5073657;28;20031;-78
2020/12/13 09:18:23;;;;;;;2.97;2.00;;;6.60;99.90;;;;;;5072272;28;20394;-78
2020/12/13 09:20:57;;;;;;;3.50;1.83;;;6.60;99.90;;;;;;5074131;28;20081;-78
2020/12/13 09:23:23;;;;;;;5.85;1.85;;;6.60;99.90;;;;;;5088483;28;20527;-78
2020/12/13 09:25:51;;;;;;;3.63;2.00;;;6.70;99.90;;;;;;5071905;28;20132;-78
2020/12/13 09:28:17;;;;;;;3.33;1.80;;;6.80;99.90;;;;;;5073705;28;20017;-78
2020/12/13 09:30:43;;;;;;;4.78;1.70;;;7.20;99.90;;;;;;5073413;28;20024;-78
2020/12/13 09:33:10;;;;;;;5.15;2.10;;;7.70;99.90;;;;;;5073966;28;20047;-78
2020/12/13 09:35:36;;;;;;;2.67;1.60;;;7.70;99.90;;;;;;5072052;28;20409;-78
2020/12/13 09:38:08;;;;;;;4.10;1.30;;;7.60;99.90;;;;;;5088878;28;20048;-78
2020/12/13 09:40:34;;;;;;;7.07;2.60;;;7.50;99.90;;;;;;5088916;28;20052;-78
2020/12/13 09:43:00;;;;;;;8.90;4.97;;;7.30;99.90;;;;;;5072086;28;20059;-78
2020/12/13 09:45:26;;;;;;;5.85;3.92;;;7.10;99.90;;;;;;5073092;28;20052;-78
2020/12/13 09:47:58;;;;;;;4.03;2.33;;;7.00;99.90;;;;;;5073173;28;20065;-79
2020/12/13 09:50:25;;;;;;;3.97;1.67;;;6.90;99.90;;;;;;5073180;28;20028;-79
2020/12/13 09:52:51;;;;;;;2.17;1.80;;;6.90;99.90;;;;;;5073410;28;20024;-78
2020/12/13 09:55:17;;;;;;;3.30;1.60;;;6.80;99.90;;;;;;5088630;28;20099;-78
2020/12/13 09:57:43;;;;;;;4.13;1.75;;;6.70;99.90;;;;;;5073132;28;20029;-78
2020/12/13 10:00:09;;;;;;;4.70;4.05;;;6.70;99.90;;;;;;5071876;28;20031;-78
2020/12/13 10:02:35;;;;;;;4.55;2.25;;;6.60;99.90;;;;;;5088642;28;20054;-78
2020/12/13 10:05:02;;;;;;;3.90;2.22;;;6.60;99.90;;;;;;5071706;28;20545;-81
2020/12/13 10:09:00;;;;;;;3.20;2.20;;;6.60;99.90;;;;;;5071781;28;20028;-78
2020/12/13 10:10:19;;;;;;;5.05;3.20;;;6.60;99.90;;;;;;5072974;28;20028;-78
2020/12/13 10:12:45;;;;;;;37.53;19.58;;;6.60;99.90;;;;;;5072939;28;20021;-78
2020/12/13 10:15:11;;;;;;;13.25;8.00;;;6.60;99.90;;;;;;5073205;28;20024;-78
2020/12/13 10:17:40;;;;;;;5.47;2.88;;;6.50;99.90;;;;;;5072917;28;20029;-78
2020/12/13 10:20:06;;;;;;;22.13;7.82;;;6.50;99.90;;;;;;5071657;28;20020;-78
2020/12/13 10:22:31;;;;;;;6.90;3.20;;;6.50;99.90;;;;;;5071551;28;20036;-78
2020/12/13 10:24:57;;;;;;;10.85;5.60;;;6.50;99.90;;;;;;5072741;28;20114;-78
2020/12/13 10:27:23;;;;;;;8.57;4.40;;;6.50;99.90;;;;;;5071486;28;20091;-78
2020/12/13 10:29:48;;;;;;;5.32;3.00;;;6.60;99.90;;;;;;5073317;28;20028;-78
2020/12/13 10:32:14;;;;;;;3.95;2.25;;;6.70;99.90;;;;;;5071478;28;20021;-78
2020/12/13 10:34:39;;;;;;;4.90;2.00;;;6.70;99.90;;;;;;5072463;28;20024;-78
2020/12/13 10:37:05;;;;;;;8.20;3.17;;;6.80;99.90;;;;;;5075082;28;20035;-78
2020/12/13 10:39:31;;;;;;;3.40;1.90;;;6.80;99.90;;;;;;5076317;28;20032;-78
2020/12/13 10:41:56;;;;;;;3.65;1.67;;;6.80;99.90;;;;;;5074995;28;20053;-78
2020/12/13 10:44:22;;;;;;;2.90;1.90;;;6.80;99.90;;;;;;5074861;28;20507;-78
2020/12/13 10:46:48;;;;;;;4.15;2.00;;;6.80;99.90;;;;;;5076102;28;20044;-78
2020/12/13 10:49:14;;;;;;;3.65;2.92;;;6.80;99.90;;;;;;5074844;28;20031;-78
2020/12/13 10:51:40;;;;;;;2.60;1.80;;;6.80;99.90;;;;;;5076653;28;20031;-78
2020/12/13 10:54:06;;;;;;;9.68;4.45;;;6.80;99.90;;;;;;5076060;28;20383;-78
2020/12/13 10:56:32;;;;;;;24.80;10.90;;;6.80;99.90;;;;;;5075910;28;20513;-78
2020/12/13 10:58:57;;;;;;;6.15;2.90;;;6.80;99.90;;;;;;5074640;28;20020;-77
2020/12/13 11:01:23;;;;;;;33.67;5.30;;;6.70;99.90;;;;;;5074598;28;20039;-79
2020/12/13 11:03:49;;;;;;;27.40;3.20;;;6.70;99.90;;;;;;5091423;28;20024;-78
2020/12/13 11:06:15;;;;;;;7.28;3.30;;;6.70;99.90;;;;;;5076085;28;20024;-78
2020/12/13 11:08:40;;;;;;;14.85;4.20;;;6.60;99.90;;;;;;5074567;28;20021;-79
2020/12/13 11:11:06;;;;;;;69.80;13.35;;;6.60;99.90;;;;;;5074526;28;20028;-78
2020/12/13 11:13:33;;;;;;;16.15;5.10;;;6.60;99.90;;;;;;5076106;28;20029;-78
2020/12/13 11:15:59;;;;;;;40.05;6.43;;;6.60;99.90;;;;;;5074316;28;20028;-79
2020/12/13 11:18:29;;;;;;;47.45;6.50;;;6.50;99.90;;;;;;5075639;28;20094;-77
2020/12/13 11:20:56;;;;;;;8.63;3.33;;;6.50;99.90;;;;;;5075573;28;20109;-78
2020/12/13 11:23:21;;;;;;;7.43;3.15;;;6.50;99.90;;;;;;5075450;28;20103;-77
2020/12/13 11:25:47;;;;;;;16.90;10.77;;;6.50;99.90;;;;;;5075610;28;20537;-76
2020/12/13 11:28:13;;;;;;;13.50;4.03;;;6.50;99.90;;;;;;5074136;28;20024;-78
2020/12/13 11:30:38;;;;;;;6.93;4.05;;;6.50;99.90;;;;;;5075406;28;20112;-77
2020/12/13 11:33:04;;;;;;;12.55;6.57;;;6.50;99.90;;;;;;5075380;28;20028;-77
2020/12/13 11:35:30;;;;;;;6.85;3.83;;;6.50;99.90;;;;;;5075283;28;20404;-76
2020/12/13 11:37:55;;;;;;;8.55;4.53;;;6.40;99.90;;;;;;5075196;28;20078;-77
2020/12/13 11:40:21;;;;;;;6.40;4.15;;;6.40;99.90;;;;;;5075204;28;20052;-77
2020/12/13 11:42:47;;;;;;;13.10;5.90;;;6.40;99.90;;;;;;5075230;28;20025;-77
2020/12/13 11:45:13;;;;;;;7.40;5.35;;;6.40;99.90;;;;;;5075056;28;20380;-77
2020/12/13 11:47:39;;;;;;;8.45;4.60;;;6.40;99.90;;;;;;5073121;28;20025;-77
2020/12/13 11:50:05;;;;;;;7.72;5.13;;;6.30;99.90;;;;;;5074965;28;20025;-77
2020/12/13 11:52:31;;;;;;;9.38;4.82;;;6.40;99.90;;;;;;5074999;28;20020;-77
2020/12/13 11:54:57;;;;;;;6.10;4.97;;;6.40;99.90;;;;;;5073621;28;20502;-77
2020/12/13 11:57:23;;;;;;;9.90;6.80;;;6.30;99.90;;;;;;5075258;28;20029;-78
2020/12/13 11:59:48;;;;;;;6.78;4.93;;;6.30;99.90;;;;;;5073583;28;20483;-78
2020/12/13 12:02:14;;;;;;;12.98;5.47;;;6.30;99.90;;;;;;5074986;28;20024;-77
2020/12/13 12:04:40;;;;;;;8.38;4.80;;;6.20;99.90;;;;;;5074656;28;20035;-77
2020/12/13 12:07:06;;;;;;;10.57;4.47;;;6.20;99.90;;;;;;5075206;28;20035;-78
2020/12/13 12:09:31;;;;;;;6.65;4.22;;;6.20;99.90;;;;;;5074591;28;20052;-77
2020/12/13 12:11:57;;;;;;;10.55;4.68;;;6.20;99.90;;;;;;5073204;28;20074;-78
2020/12/13 12:14:23;;;;;;;12.77;5.53;;;6.20;99.90;;;;;;5074405;28;20115;-78
2020/12/13 12:16:48;;;;;;;16.30;6.90;;;6.20;99.90;;;;;;5074574;28;20036;-78
2020/12/13 12:19:14;;;;;;;20.02;6.55;;;6.20;99.90;;;;;;5074286;28;20031;-77
2020/12/13 12:21:47;;;;;;;12.43;6.40;;;6.20;99.90;;;;;;5074279;28;20050;-77
2020/12/13 12:24:16;;;;;;;9.52;4.03;;;6.20;99.90;;;;;;5072859;28;20028;-77
2020/12/13 12:26:42;;;;;;;7.88;4.70;;;6.20;99.90;;;;;;5072797;28;20040;-77
2020/12/13 12:29:08;;;;;;;7.95;4.70;;;6.20;99.90;;;;;;5074525;28;20020;-78
2020/12/13 12:31:33;;;;;;;7.47;5.05;;;6.30;99.90;;;;;;5072877;28;20029;-77
2020/12/13 12:33:59;;;;;;;9.02;5.72;;;6.30;99.90;;;;;;5074314;28;20020;-77
2020/12/13 12:36:26;;;;;;;6.82;4.18;;;6.30;99.90;;;;;;5074068;28;20031;-78
2020/12/13 12:38:52;;;;;;;12.73;3.92;;;6.30;99.90;;;;;;5072786;28;20043;-77
2020/12/13 12:41:20;;;;;;;6.18;3.65;;;6.30;99.90;;;;;;5074005;28;20459;-77
2020/12/13 12:43:47;;;;;;;12.45;7.03;;;6.40;99.90;;;;;;5089460;28;20086;-78
2020/12/13 12:46:14;;;;;;;9.00;3.97;;;6.40;99.90;;;;;;5072555;28;20115;-78
2020/12/13 12:48:40;;;;;;;9.18;3.85;;;6.50;99.90;;;;;;5073958;28;20024;-77
2020/12/13 12:51:09;;;;;;;4.53;2.92;;;6.50;99.90;;;;;;5073932;28;20021;-77
2020/12/13 12:53:35;;;;;;;6.82;3.75;;;6.50;99.90;;;;;;5073813;28;20488;-77
2020/12/13 12:56:04;;;;;;;3.00;1.83;;;6.50;99.90;;;;;;5073832;28;20056;-78
2020/12/13 12:58:38;;;;;;;3.50;2.38;;;6.60;99.90;;;;;;5088511;28;20120;-77
2020/12/13 13:01:05;;;;;;;4.07;2.35;;;6.60;99.90;;;;;;5072550;28;20430;-77
2020/12/13 13:03:32;;;;;;;4.53;2.05;;;6.60;99.90;;;;;;5072349;28;20036;-78
2020/12/13 13:06:25;;;;;;;9.10;3.25;;;6.50;99.90;;;;;;5073676;28;20043;-77